<?xml version="1.0" encoding="UTF-8" standalone="no" ?>
<gpx xmlns="http://www.topografix.com/GPX/1/1" xmlns:xsi="http://www.w3.org/2001/XMLSchema-instance" xsi:schemaLocation="http://www.topografix.com/GPX/1/1 http://www.topografix.com/GPX/1/1/gpx.xsd" version="1.1" creator="VisuGPX - https://www.visugpx.com">
  <metadata>
    <name>Velo : Mougins le Haut - Biot - Antibes - Vallauris</name>
    <desc><![CDATA[Tour en velo par Mougins le Haut - Biot - Antibes - Vallauris]]></desc>
  </metadata>
  <trk>
    <name><![CDATA[DG-100 Track]]></name>
    <trkseg>
      <trkpt lat="43.5993" lon="7.03598">
        <ele>203</ele>
        <time>2011-12-10T09:26:23Z</time>
      </trkpt>
      <trkpt lat="43.59935" lon="7.03616">
        <ele>204</ele>
        <time>2011-12-10T09:26:34Z</time>
      </trkpt>
      <trkpt lat="43.59918" lon="7.03585">
        <ele>202</ele>
        <time>2011-12-10T09:26:44Z</time>
      </trkpt>
      <trkpt lat="43.59917" lon="7.03573">
        <ele>202</ele>
        <time>2011-12-10T09:26:54Z</time>
      </trkpt>
      <trkpt lat="43.59937" lon="7.03534">
        <ele>201</ele>
        <time>2011-12-10T09:27:04Z</time>
      </trkpt>
      <trkpt lat="43.59974" lon="7.03479">
        <ele>199</ele>
        <time>2011-12-10T09:27:14Z</time>
      </trkpt>
      <trkpt lat="43.60052" lon="7.03454">
        <ele>200</ele>
        <time>2011-12-10T09:27:24Z</time>
      </trkpt>
      <trkpt lat="43.60125" lon="7.03478">
        <ele>196</ele>
        <time>2011-12-10T09:27:34Z</time>
      </trkpt>
      <trkpt lat="43.60199" lon="7.03603">
        <ele>194</ele>
        <time>2011-12-10T09:27:44Z</time>
      </trkpt>
      <trkpt lat="43.60239" lon="7.03732">
        <ele>193</ele>
        <time>2011-12-10T09:27:54Z</time>
      </trkpt>
      <trkpt lat="43.60272" lon="7.03855">
        <ele>191</ele>
        <time>2011-12-10T09:28:04Z</time>
      </trkpt>
      <trkpt lat="43.6031" lon="7.03912">
        <ele>190</ele>
        <time>2011-12-10T09:28:14Z</time>
      </trkpt>
      <trkpt lat="43.60352" lon="7.03843">
        <ele>194</ele>
        <time>2011-12-10T09:28:24Z</time>
      </trkpt>
      <trkpt lat="43.60417" lon="7.03848">
        <ele>195</ele>
        <time>2011-12-10T09:28:34Z</time>
      </trkpt>
      <trkpt lat="43.60455" lon="7.03926">
        <ele>188</ele>
        <time>2011-12-10T09:28:44Z</time>
      </trkpt>
      <trkpt lat="43.60529" lon="7.03982">
        <ele>188</ele>
        <time>2011-12-10T09:28:54Z</time>
      </trkpt>
      <trkpt lat="43.606" lon="7.0404">
        <ele>187</ele>
        <time>2011-12-10T09:29:04Z</time>
      </trkpt>
      <trkpt lat="43.60669" lon="7.0412">
        <ele>191</ele>
        <time>2011-12-10T09:29:14Z</time>
      </trkpt>
      <trkpt lat="43.60733" lon="7.0416">
        <ele>193</ele>
        <time>2011-12-10T09:29:24Z</time>
      </trkpt>
      <trkpt lat="43.6078" lon="7.04161">
        <ele>196</ele>
        <time>2011-12-10T09:29:34Z</time>
      </trkpt>
      <trkpt lat="43.60825" lon="7.04164">
        <ele>195</ele>
        <time>2011-12-10T09:29:44Z</time>
      </trkpt>
      <trkpt lat="43.60893" lon="7.04162">
        <ele>194</ele>
        <time>2011-12-10T09:29:54Z</time>
      </trkpt>
      <trkpt lat="43.60945" lon="7.04181">
        <ele>188</ele>
        <time>2011-12-10T09:30:04Z</time>
      </trkpt>
      <trkpt lat="43.61014" lon="7.0421">
        <ele>181</ele>
        <time>2011-12-10T09:30:14Z</time>
      </trkpt>
      <trkpt lat="43.6107" lon="7.04329">
        <ele>179</ele>
        <time>2011-12-10T09:30:24Z</time>
      </trkpt>
      <trkpt lat="43.61164" lon="7.04375">
        <ele>177</ele>
        <time>2011-12-10T09:30:34Z</time>
      </trkpt>
      <trkpt lat="43.6123" lon="7.04403">
        <ele>174</ele>
        <time>2011-12-10T09:30:44Z</time>
      </trkpt>
      <trkpt lat="43.61292" lon="7.04521">
        <ele>165</ele>
        <time>2011-12-10T09:30:54Z</time>
      </trkpt>
      <trkpt lat="43.61335" lon="7.04565">
        <ele>159</ele>
        <time>2011-12-10T09:31:04Z</time>
      </trkpt>
      <trkpt lat="43.61344" lon="7.04595">
        <ele>159</ele>
        <time>2011-12-10T09:31:14Z</time>
      </trkpt>
      <trkpt lat="43.61385" lon="7.04656">
        <ele>159</ele>
        <time>2011-12-10T09:31:24Z</time>
      </trkpt>
      <trkpt lat="43.61411" lon="7.04716">
        <ele>158</ele>
        <time>2011-12-10T09:31:34Z</time>
      </trkpt>
      <trkpt lat="43.61439" lon="7.04756">
        <ele>164</ele>
        <time>2011-12-10T09:31:44Z</time>
      </trkpt>
      <trkpt lat="43.61474" lon="7.04781">
        <ele>167</ele>
        <time>2011-12-10T09:31:54Z</time>
      </trkpt>
      <trkpt lat="43.61507" lon="7.04806">
        <ele>172</ele>
        <time>2011-12-10T09:32:04Z</time>
      </trkpt>
      <trkpt lat="43.61531" lon="7.04839">
        <ele>172</ele>
        <time>2011-12-10T09:32:14Z</time>
      </trkpt>
      <trkpt lat="43.6156" lon="7.0488">
        <ele>173</ele>
        <time>2011-12-10T09:32:24Z</time>
      </trkpt>
      <trkpt lat="43.61597" lon="7.049">
        <ele>173</ele>
        <time>2011-12-10T09:32:34Z</time>
      </trkpt>
      <trkpt lat="43.61624" lon="7.04938">
        <ele>173</ele>
        <time>2011-12-10T09:32:44Z</time>
      </trkpt>
      <trkpt lat="43.61654" lon="7.0499">
        <ele>174</ele>
        <time>2011-12-10T09:32:54Z</time>
      </trkpt>
      <trkpt lat="43.61697" lon="7.05024">
        <ele>173</ele>
        <time>2011-12-10T09:33:04Z</time>
      </trkpt>
      <trkpt lat="43.61749" lon="7.05082">
        <ele>173</ele>
        <time>2011-12-10T09:33:14Z</time>
      </trkpt>
      <trkpt lat="43.61783" lon="7.05181">
        <ele>173</ele>
        <time>2011-12-10T09:33:24Z</time>
      </trkpt>
      <trkpt lat="43.61799" lon="7.05306">
        <ele>169</ele>
        <time>2011-12-10T09:33:34Z</time>
      </trkpt>
      <trkpt lat="43.61799" lon="7.05335">
        <ele>169</ele>
        <time>2011-12-10T09:33:44Z</time>
      </trkpt>
      <trkpt lat="43.61819" lon="7.05397">
        <ele>168</ele>
        <time>2011-12-10T09:33:54Z</time>
      </trkpt>
      <trkpt lat="43.61807" lon="7.05524">
        <ele>165</ele>
        <time>2011-12-10T09:34:04Z</time>
      </trkpt>
      <trkpt lat="43.61789" lon="7.05668">
        <ele>151</ele>
        <time>2011-12-10T09:34:14Z</time>
      </trkpt>
      <trkpt lat="43.61778" lon="7.05809">
        <ele>139</ele>
        <time>2011-12-10T09:34:24Z</time>
      </trkpt>
      <trkpt lat="43.6174" lon="7.05938">
        <ele>132</ele>
        <time>2011-12-10T09:34:34Z</time>
      </trkpt>
      <trkpt lat="43.61702" lon="7.06035">
        <ele>126</ele>
        <time>2011-12-10T09:34:44Z</time>
      </trkpt>
      <trkpt lat="43.61682" lon="7.06149">
        <ele>126</ele>
        <time>2011-12-10T09:34:54Z</time>
      </trkpt>
      <trkpt lat="43.61666" lon="7.06274">
        <ele>127</ele>
        <time>2011-12-10T09:35:04Z</time>
      </trkpt>
      <trkpt lat="43.61635" lon="7.0639">
        <ele>124</ele>
        <time>2011-12-10T09:35:14Z</time>
      </trkpt>
      <trkpt lat="43.61633" lon="7.06527">
        <ele>130</ele>
        <time>2011-12-10T09:35:24Z</time>
      </trkpt>
      <trkpt lat="43.61603" lon="7.06593">
        <ele>128</ele>
        <time>2011-12-10T09:35:34Z</time>
      </trkpt>
      <trkpt lat="43.61597" lon="7.06637">
        <ele>128</ele>
        <time>2011-12-10T09:35:44Z</time>
      </trkpt>
      <trkpt lat="43.61603" lon="7.06736">
        <ele>127</ele>
        <time>2011-12-10T09:35:54Z</time>
      </trkpt>
      <trkpt lat="43.61628" lon="7.06848">
        <ele>129</ele>
        <time>2011-12-10T09:36:04Z</time>
      </trkpt>
      <trkpt lat="43.6167" lon="7.06932">
        <ele>129</ele>
        <time>2011-12-10T09:36:14Z</time>
      </trkpt>
      <trkpt lat="43.61704" lon="7.06997">
        <ele>129</ele>
        <time>2011-12-10T09:36:24Z</time>
      </trkpt>
      <trkpt lat="43.61718" lon="7.07075">
        <ele>130</ele>
        <time>2011-12-10T09:36:34Z</time>
      </trkpt>
      <trkpt lat="43.61725" lon="7.07152">
        <ele>129</ele>
        <time>2011-12-10T09:36:44Z</time>
      </trkpt>
      <trkpt lat="43.617" lon="7.07267">
        <ele>122</ele>
        <time>2011-12-10T09:36:54Z</time>
      </trkpt>
      <trkpt lat="43.61682" lon="7.07394">
        <ele>116</ele>
        <time>2011-12-10T09:37:04Z</time>
      </trkpt>
      <trkpt lat="43.61672" lon="7.07517">
        <ele>117</ele>
        <time>2011-12-10T09:37:14Z</time>
      </trkpt>
      <trkpt lat="43.61628" lon="7.07612">
        <ele>117</ele>
        <time>2011-12-10T09:37:24Z</time>
      </trkpt>
      <trkpt lat="43.61609" lon="7.07726">
        <ele>119</ele>
        <time>2011-12-10T09:37:34Z</time>
      </trkpt>
      <trkpt lat="43.61552" lon="7.07827">
        <ele>119</ele>
        <time>2011-12-10T09:37:45Z</time>
      </trkpt>
      <trkpt lat="43.61523" lon="7.07902">
        <ele>119</ele>
        <time>2011-12-10T09:37:55Z</time>
      </trkpt>
      <trkpt lat="43.6151" lon="7.07997">
        <ele>118</ele>
        <time>2011-12-10T09:38:05Z</time>
      </trkpt>
      <trkpt lat="43.6151" lon="7.08097">
        <ele>114</ele>
        <time>2011-12-10T09:38:15Z</time>
      </trkpt>
      <trkpt lat="43.61556" lon="7.08174">
        <ele>112</ele>
        <time>2011-12-10T09:38:25Z</time>
      </trkpt>
      <trkpt lat="43.61591" lon="7.08318">
        <ele>108</ele>
        <time>2011-12-10T09:38:35Z</time>
      </trkpt>
      <trkpt lat="43.61529" lon="7.08447">
        <ele>109</ele>
        <time>2011-12-10T09:38:45Z</time>
      </trkpt>
      <trkpt lat="43.61514" lon="7.08555">
        <ele>116</ele>
        <time>2011-12-10T09:38:55Z</time>
      </trkpt>
      <trkpt lat="43.61502" lon="7.08605">
        <ele>119</ele>
        <time>2011-12-10T09:39:05Z</time>
      </trkpt>
      <trkpt lat="43.61479" lon="7.08658">
        <ele>120</ele>
        <time>2011-12-10T09:39:15Z</time>
      </trkpt>
      <trkpt lat="43.61434" lon="7.08726">
        <ele>117</ele>
        <time>2011-12-10T09:39:25Z</time>
      </trkpt>
      <trkpt lat="43.61398" lon="7.08853">
        <ele>104</ele>
        <time>2011-12-10T09:39:35Z</time>
      </trkpt>
      <trkpt lat="43.614" lon="7.0897">
        <ele>107</ele>
        <time>2011-12-10T09:39:45Z</time>
      </trkpt>
      <trkpt lat="43.61426" lon="7.09078">
        <ele>105</ele>
        <time>2011-12-10T09:39:55Z</time>
      </trkpt>
      <trkpt lat="43.61472" lon="7.09189">
        <ele>104</ele>
        <time>2011-12-10T09:40:05Z</time>
      </trkpt>
      <trkpt lat="43.61555" lon="7.09228">
        <ele>96</ele>
        <time>2011-12-10T09:40:15Z</time>
      </trkpt>
      <trkpt lat="43.61658" lon="7.09268">
        <ele>85</ele>
        <time>2011-12-10T09:40:25Z</time>
      </trkpt>
      <trkpt lat="43.61733" lon="7.09388">
        <ele>77</ele>
        <time>2011-12-10T09:40:35Z</time>
      </trkpt>
      <trkpt lat="43.61746" lon="7.09535">
        <ele>72</ele>
        <time>2011-12-10T09:40:45Z</time>
      </trkpt>
      <trkpt lat="43.61678" lon="7.09633">
        <ele>69</ele>
        <time>2011-12-10T09:40:55Z</time>
      </trkpt>
      <trkpt lat="43.61805" lon="7.0964">
        <ele>55</ele>
        <time>2011-12-10T09:41:05Z</time>
      </trkpt>
      <trkpt lat="43.61913" lon="7.09641">
        <ele>45</ele>
        <time>2011-12-10T09:41:15Z</time>
      </trkpt>
      <trkpt lat="43.61986" lon="7.09739">
        <ele>40</ele>
        <time>2011-12-10T09:41:25Z</time>
      </trkpt>
      <trkpt lat="43.62045" lon="7.09864">
        <ele>30</ele>
        <time>2011-12-10T09:41:35Z</time>
      </trkpt>
      <trkpt lat="43.62137" lon="7.09938">
        <ele>24</ele>
        <time>2011-12-10T09:41:45Z</time>
      </trkpt>
      <trkpt lat="43.62197" lon="7.10023">
        <ele>16</ele>
        <time>2011-12-10T09:41:55Z</time>
      </trkpt>
      <trkpt lat="43.62122" lon="7.10086">
        <ele>16</ele>
        <time>2011-12-10T09:42:05Z</time>
      </trkpt>
      <trkpt lat="43.62033" lon="7.10128">
        <ele>16</ele>
        <time>2011-12-10T09:42:15Z</time>
      </trkpt>
      <trkpt lat="43.61954" lon="7.10191">
        <ele>16</ele>
        <time>2011-12-10T09:42:25Z</time>
      </trkpt>
      <trkpt lat="43.61876" lon="7.10245">
        <ele>16</ele>
        <time>2011-12-10T09:42:35Z</time>
      </trkpt>
      <trkpt lat="43.61803" lon="7.10306">
        <ele>14</ele>
        <time>2011-12-10T09:42:45Z</time>
      </trkpt>
      <trkpt lat="43.61734" lon="7.10377">
        <ele>13</ele>
        <time>2011-12-10T09:42:55Z</time>
      </trkpt>
      <trkpt lat="43.61696" lon="7.1048">
        <ele>13</ele>
        <time>2011-12-10T09:43:05Z</time>
      </trkpt>
      <trkpt lat="43.61662" lon="7.1059">
        <ele>11</ele>
        <time>2011-12-10T09:43:15Z</time>
      </trkpt>
      <trkpt lat="43.61608" lon="7.10675">
        <ele>11</ele>
        <time>2011-12-10T09:43:25Z</time>
      </trkpt>
      <trkpt lat="43.61557" lon="7.10752">
        <ele>15</ele>
        <time>2011-12-10T09:43:35Z</time>
      </trkpt>
      <trkpt lat="43.61513" lon="7.10829">
        <ele>15</ele>
        <time>2011-12-10T09:43:45Z</time>
      </trkpt>
      <trkpt lat="43.61512" lon="7.10879">
        <ele>12</ele>
        <time>2011-12-10T09:43:55Z</time>
      </trkpt>
      <trkpt lat="43.6156" lon="7.10949">
        <ele>11</ele>
        <time>2011-12-10T09:44:05Z</time>
      </trkpt>
      <trkpt lat="43.61603" lon="7.1102">
        <ele>10</ele>
        <time>2011-12-10T09:44:15Z</time>
      </trkpt>
      <trkpt lat="43.61654" lon="7.11097">
        <ele>9</ele>
        <time>2011-12-10T09:44:25Z</time>
      </trkpt>
      <trkpt lat="43.61717" lon="7.11167">
        <ele>9</ele>
        <time>2011-12-10T09:44:35Z</time>
      </trkpt>
      <trkpt lat="43.61766" lon="7.11223">
        <ele>9</ele>
        <time>2011-12-10T09:44:45Z</time>
      </trkpt>
      <trkpt lat="43.61753" lon="7.11317">
        <ele>9</ele>
        <time>2011-12-10T09:44:55Z</time>
      </trkpt>
      <trkpt lat="43.61715" lon="7.11408">
        <ele>9</ele>
        <time>2011-12-10T09:45:05Z</time>
      </trkpt>
      <trkpt lat="43.61677" lon="7.11485">
        <ele>9</ele>
        <time>2011-12-10T09:45:15Z</time>
      </trkpt>
      <trkpt lat="43.6164" lon="7.1156">
        <ele>9</ele>
        <time>2011-12-10T09:45:25Z</time>
      </trkpt>
      <trkpt lat="43.6159" lon="7.11664">
        <ele>9</ele>
        <time>2011-12-10T09:45:35Z</time>
      </trkpt>
      <trkpt lat="43.61533" lon="7.11779">
        <ele>9</ele>
        <time>2011-12-10T09:45:45Z</time>
      </trkpt>
      <trkpt lat="43.61493" lon="7.11899">
        <ele>7</ele>
        <time>2011-12-10T09:45:55Z</time>
      </trkpt>
      <trkpt lat="43.61469" lon="7.12019">
        <ele>4</ele>
        <time>2011-12-10T09:46:05Z</time>
      </trkpt>
      <trkpt lat="43.61424" lon="7.12129">
        <ele>4</ele>
        <time>2011-12-10T09:46:15Z</time>
      </trkpt>
      <trkpt lat="43.6138" lon="7.12238">
        <ele>4</ele>
        <time>2011-12-10T09:46:25Z</time>
      </trkpt>
      <trkpt lat="43.61338" lon="7.12344">
        <ele>4</ele>
        <time>2011-12-10T09:46:35Z</time>
      </trkpt>
      <trkpt lat="43.61298" lon="7.12442">
        <ele>3</ele>
        <time>2011-12-10T09:46:45Z</time>
      </trkpt>
      <trkpt lat="43.61266" lon="7.12525">
        <ele>4</ele>
        <time>2011-12-10T09:46:55Z</time>
      </trkpt>
      <trkpt lat="43.61238" lon="7.12601">
        <ele>4</ele>
        <time>2011-12-10T09:47:05Z</time>
      </trkpt>
      <trkpt lat="43.61201" lon="7.12634">
        <ele>4</ele>
        <time>2011-12-10T09:47:15Z</time>
      </trkpt>
      <trkpt lat="43.61165" lon="7.12619">
        <ele>4</ele>
        <time>2011-12-10T09:47:25Z</time>
      </trkpt>
      <trkpt lat="43.61133" lon="7.12602">
        <ele>4</ele>
        <time>2011-12-10T09:47:35Z</time>
      </trkpt>
      <trkpt lat="43.61099" lon="7.12584">
        <ele>4</ele>
        <time>2011-12-10T09:47:45Z</time>
      </trkpt>
      <trkpt lat="43.61115" lon="7.12603">
        <ele>4</ele>
        <time>2011-12-10T09:47:55Z</time>
      </trkpt>
      <trkpt lat="43.61136" lon="7.12613">
        <ele>4</ele>
        <time>2011-12-10T09:48:05Z</time>
      </trkpt>
      <trkpt lat="43.61159" lon="7.12628">
        <ele>4</ele>
        <time>2011-12-10T09:48:15Z</time>
      </trkpt>
      <trkpt lat="43.6113" lon="7.12644">
        <ele>4</ele>
        <time>2011-12-10T09:48:30Z</time>
      </trkpt>
      <trkpt lat="43.61134" lon="7.12663">
        <ele>4</ele>
        <time>2011-12-10T09:48:40Z</time>
      </trkpt>
      <trkpt lat="43.61133" lon="7.12668">
        <ele>4</ele>
        <time>2011-12-10T09:48:50Z</time>
      </trkpt>
      <trkpt lat="43.61131" lon="7.12668">
        <ele>4</ele>
        <time>2011-12-10T09:49:00Z</time>
      </trkpt>
      <trkpt lat="43.61112" lon="7.12666">
        <ele>4</ele>
        <time>2011-12-10T09:49:10Z</time>
      </trkpt>
      <trkpt lat="43.61069" lon="7.12645">
        <ele>4</ele>
        <time>2011-12-10T09:49:20Z</time>
      </trkpt>
      <trkpt lat="43.61008" lon="7.12621">
        <ele>4</ele>
        <time>2011-12-10T09:49:30Z</time>
      </trkpt>
      <trkpt lat="43.60941" lon="7.12599">
        <ele>3</ele>
        <time>2011-12-10T09:49:40Z</time>
      </trkpt>
      <trkpt lat="43.60873" lon="7.12583">
        <ele>4</ele>
        <time>2011-12-10T09:49:50Z</time>
      </trkpt>
      <trkpt lat="43.60798" lon="7.12567">
        <ele>4</ele>
        <time>2011-12-10T09:50:00Z</time>
      </trkpt>
      <trkpt lat="43.6072" lon="7.12554">
        <ele>3</ele>
        <time>2011-12-10T09:50:10Z</time>
      </trkpt>
      <trkpt lat="43.60634" lon="7.12549">
        <ele>3</ele>
        <time>2011-12-10T09:50:20Z</time>
      </trkpt>
      <trkpt lat="43.6055" lon="7.12546">
        <ele>3</ele>
        <time>2011-12-10T09:50:30Z</time>
      </trkpt>
      <trkpt lat="43.60469" lon="7.12546">
        <ele>3</ele>
        <time>2011-12-10T09:50:40Z</time>
      </trkpt>
      <trkpt lat="43.60391" lon="7.12543">
        <ele>3</ele>
        <time>2011-12-10T09:50:50Z</time>
      </trkpt>
      <trkpt lat="43.60314" lon="7.12545">
        <ele>3</ele>
        <time>2011-12-10T09:51:00Z</time>
      </trkpt>
      <trkpt lat="43.60234" lon="7.12545">
        <ele>3</ele>
        <time>2011-12-10T09:51:10Z</time>
      </trkpt>
      <trkpt lat="43.6015" lon="7.12543">
        <ele>5</ele>
        <time>2011-12-10T09:51:20Z</time>
      </trkpt>
      <trkpt lat="43.60063" lon="7.12538">
        <ele>5</ele>
        <time>2011-12-10T09:51:30Z</time>
      </trkpt>
      <trkpt lat="43.59978" lon="7.1254">
        <ele>5</ele>
        <time>2011-12-10T09:51:40Z</time>
      </trkpt>
      <trkpt lat="43.599" lon="7.12537">
        <ele>4</ele>
        <time>2011-12-10T09:51:50Z</time>
      </trkpt>
      <trkpt lat="43.59817" lon="7.12535">
        <ele>5</ele>
        <time>2011-12-10T09:52:00Z</time>
      </trkpt>
      <trkpt lat="43.59734" lon="7.12535">
        <ele>4</ele>
        <time>2011-12-10T09:52:10Z</time>
      </trkpt>
      <trkpt lat="43.59651" lon="7.12534">
        <ele>5</ele>
        <time>2011-12-10T09:52:20Z</time>
      </trkpt>
      <trkpt lat="43.59572" lon="7.12536">
        <ele>5</ele>
        <time>2011-12-10T09:52:30Z</time>
      </trkpt>
      <trkpt lat="43.59495" lon="7.12542">
        <ele>4</ele>
        <time>2011-12-10T09:52:40Z</time>
      </trkpt>
      <trkpt lat="43.59419" lon="7.12535">
        <ele>4</ele>
        <time>2011-12-10T09:52:50Z</time>
      </trkpt>
      <trkpt lat="43.59348" lon="7.12526">
        <ele>4</ele>
        <time>2011-12-10T09:53:00Z</time>
      </trkpt>
      <trkpt lat="43.59278" lon="7.12513">
        <ele>5</ele>
        <time>2011-12-10T09:53:10Z</time>
      </trkpt>
      <trkpt lat="43.59215" lon="7.12482">
        <ele>6</ele>
        <time>2011-12-10T09:53:20Z</time>
      </trkpt>
      <trkpt lat="43.59152" lon="7.1245">
        <ele>5</ele>
        <time>2011-12-10T09:53:30Z</time>
      </trkpt>
      <trkpt lat="43.59091" lon="7.12432">
        <ele>5</ele>
        <time>2011-12-10T09:53:40Z</time>
      </trkpt>
      <trkpt lat="43.59028" lon="7.12432">
        <ele>4</ele>
        <time>2011-12-10T09:53:48Z</time>
      </trkpt>
      <trkpt lat="43.58967" lon="7.12414">
        <ele>3</ele>
        <time>2011-12-10T09:53:58Z</time>
      </trkpt>
      <trkpt lat="43.58926" lon="7.12329">
        <ele>2</ele>
        <time>2011-12-10T09:54:08Z</time>
      </trkpt>
      <trkpt lat="43.58892" lon="7.12236">
        <ele>4</ele>
        <time>2011-12-10T09:54:18Z</time>
      </trkpt>
      <trkpt lat="43.58836" lon="7.12178">
        <ele>5</ele>
        <time>2011-12-10T09:54:28Z</time>
      </trkpt>
      <trkpt lat="43.58776" lon="7.12132">
        <ele>6</ele>
        <time>2011-12-10T09:54:38Z</time>
      </trkpt>
      <trkpt lat="43.58713" lon="7.12104">
        <ele>4</ele>
        <time>2011-12-10T09:54:48Z</time>
      </trkpt>
      <trkpt lat="43.58699" lon="7.12096">
        <ele>5</ele>
        <time>2011-12-10T09:54:58Z</time>
      </trkpt>
      <trkpt lat="43.5869" lon="7.12091">
        <ele>5</ele>
        <time>2011-12-10T09:55:08Z</time>
      </trkpt>
      <trkpt lat="43.58647" lon="7.12079">
        <ele>7</ele>
        <time>2011-12-10T09:55:18Z</time>
      </trkpt>
      <trkpt lat="43.58583" lon="7.12083">
        <ele>6</ele>
        <time>2011-12-10T09:55:28Z</time>
      </trkpt>
      <trkpt lat="43.58515" lon="7.12105">
        <ele>6</ele>
        <time>2011-12-10T09:55:38Z</time>
      </trkpt>
      <trkpt lat="43.58455" lon="7.12145">
        <ele>9</ele>
        <time>2011-12-10T09:55:48Z</time>
      </trkpt>
      <trkpt lat="43.58419" lon="7.12207">
        <ele>6</ele>
        <time>2011-12-10T09:55:58Z</time>
      </trkpt>
      <trkpt lat="43.58401" lon="7.1231">
        <ele>4</ele>
        <time>2011-12-10T09:56:08Z</time>
      </trkpt>
      <trkpt lat="43.58394" lon="7.12412">
        <ele>4</ele>
        <time>2011-12-10T09:56:18Z</time>
      </trkpt>
      <trkpt lat="43.58386" lon="7.12509">
        <ele>3</ele>
        <time>2011-12-10T09:56:28Z</time>
      </trkpt>
      <trkpt lat="43.58384" lon="7.126">
        <ele>3</ele>
        <time>2011-12-10T09:56:38Z</time>
      </trkpt>
      <trkpt lat="43.58378" lon="7.12689">
        <ele>3</ele>
        <time>2011-12-10T09:56:48Z</time>
      </trkpt>
      <trkpt lat="43.58348" lon="7.12744">
        <ele>3</ele>
        <time>2011-12-10T09:56:58Z</time>
      </trkpt>
      <trkpt lat="43.58315" lon="7.12795">
        <ele>5</ele>
        <time>2011-12-10T09:57:08Z</time>
      </trkpt>
      <trkpt lat="43.58271" lon="7.12799">
        <ele>8</ele>
        <time>2011-12-10T09:57:18Z</time>
      </trkpt>
      <trkpt lat="43.58246" lon="7.12831">
        <ele>11</ele>
        <time>2011-12-10T09:57:28Z</time>
      </trkpt>
      <trkpt lat="43.58233" lon="7.12879">
        <ele>9</ele>
        <time>2011-12-10T09:57:38Z</time>
      </trkpt>
      <trkpt lat="43.58187" lon="7.1289">
        <ele>10</ele>
        <time>2011-12-10T09:57:48Z</time>
      </trkpt>
      <trkpt lat="43.58138" lon="7.12875">
        <ele>14</ele>
        <time>2011-12-10T09:57:58Z</time>
      </trkpt>
      <trkpt lat="43.58092" lon="7.12867">
        <ele>15</ele>
        <time>2011-12-10T09:58:08Z</time>
      </trkpt>
      <trkpt lat="43.58049" lon="7.12828">
        <ele>16</ele>
        <time>2011-12-10T09:58:18Z</time>
      </trkpt>
      <trkpt lat="43.57996" lon="7.12801">
        <ele>13</ele>
        <time>2011-12-10T09:58:28Z</time>
      </trkpt>
      <trkpt lat="43.57958" lon="7.12775">
        <ele>13</ele>
        <time>2011-12-10T09:58:38Z</time>
      </trkpt>
      <trkpt lat="43.57948" lon="7.12734">
        <ele>13</ele>
        <time>2011-12-10T09:58:48Z</time>
      </trkpt>
      <trkpt lat="43.57908" lon="7.12698">
        <ele>12</ele>
        <time>2011-12-10T09:58:58Z</time>
      </trkpt>
      <trkpt lat="43.57864" lon="7.12663">
        <ele>10</ele>
        <time>2011-12-10T09:59:08Z</time>
      </trkpt>
      <trkpt lat="43.57831" lon="7.12651">
        <ele>8</ele>
        <time>2011-12-10T09:59:18Z</time>
      </trkpt>
      <trkpt lat="43.57793" lon="7.12625">
        <ele>8</ele>
        <time>2011-12-10T09:59:28Z</time>
      </trkpt>
      <trkpt lat="43.57762" lon="7.12561">
        <ele>10</ele>
        <time>2011-12-10T09:59:38Z</time>
      </trkpt>
      <trkpt lat="43.57736" lon="7.12489">
        <ele>14</ele>
        <time>2011-12-10T09:59:48Z</time>
      </trkpt>
      <trkpt lat="43.57727" lon="7.12476">
        <ele>14</ele>
        <time>2011-12-10T09:59:58Z</time>
      </trkpt>
      <trkpt lat="43.57729" lon="7.12476">
        <ele>14</ele>
        <time>2011-12-10T10:00:08Z</time>
      </trkpt>
      <trkpt lat="43.57721" lon="7.12456">
        <ele>14</ele>
        <time>2011-12-10T10:00:18Z</time>
      </trkpt>
      <trkpt lat="43.5768" lon="7.12475">
        <ele>14</ele>
        <time>2011-12-10T10:00:28Z</time>
      </trkpt>
      <trkpt lat="43.57628" lon="7.12493">
        <ele>13</ele>
        <time>2011-12-10T10:00:38Z</time>
      </trkpt>
      <trkpt lat="43.57619" lon="7.12481">
        <ele>13</ele>
        <time>2011-12-10T10:00:48Z</time>
      </trkpt>
      <trkpt lat="43.57617" lon="7.12477">
        <ele>13</ele>
        <time>2011-12-10T10:00:58Z</time>
      </trkpt>
      <trkpt lat="43.57614" lon="7.12474">
        <ele>13</ele>
        <time>2011-12-10T10:01:08Z</time>
      </trkpt>
      <trkpt lat="43.57576" lon="7.1244">
        <ele>11</ele>
        <time>2011-12-10T10:01:18Z</time>
      </trkpt>
      <trkpt lat="43.57519" lon="7.12415">
        <ele>8</ele>
        <time>2011-12-10T10:01:28Z</time>
      </trkpt>
      <trkpt lat="43.57477" lon="7.12412">
        <ele>6</ele>
        <time>2011-12-10T10:01:38Z</time>
      </trkpt>
      <trkpt lat="43.57415" lon="7.12406">
        <ele>6</ele>
        <time>2011-12-10T10:01:48Z</time>
      </trkpt>
      <trkpt lat="43.57359" lon="7.12419">
        <ele>6</ele>
        <time>2011-12-10T10:01:58Z</time>
      </trkpt>
      <trkpt lat="43.57314" lon="7.12462">
        <ele>7</ele>
        <time>2011-12-10T10:02:08Z</time>
      </trkpt>
      <trkpt lat="43.57256" lon="7.12523">
        <ele>6</ele>
        <time>2011-12-10T10:02:18Z</time>
      </trkpt>
      <trkpt lat="43.57233" lon="7.12623">
        <ele>7</ele>
        <time>2011-12-10T10:02:28Z</time>
      </trkpt>
      <trkpt lat="43.57196" lon="7.12714">
        <ele>6</ele>
        <time>2011-12-10T10:02:38Z</time>
      </trkpt>
      <trkpt lat="43.57131" lon="7.12775">
        <ele>7</ele>
        <time>2011-12-10T10:02:48Z</time>
      </trkpt>
      <trkpt lat="43.57063" lon="7.12837">
        <ele>8</ele>
        <time>2011-12-10T10:02:58Z</time>
      </trkpt>
      <trkpt lat="43.57001" lon="7.12901">
        <ele>6</ele>
        <time>2011-12-10T10:03:08Z</time>
      </trkpt>
      <trkpt lat="43.56946" lon="7.12978">
        <ele>6</ele>
        <time>2011-12-10T10:03:18Z</time>
      </trkpt>
      <trkpt lat="43.56907" lon="7.13072">
        <ele>4</ele>
        <time>2011-12-10T10:03:28Z</time>
      </trkpt>
      <trkpt lat="43.56895" lon="7.13171">
        <ele>7</ele>
        <time>2011-12-10T10:03:38Z</time>
      </trkpt>
      <trkpt lat="43.56947" lon="7.13242">
        <ele>6</ele>
        <time>2011-12-10T10:03:48Z</time>
      </trkpt>
      <trkpt lat="43.56985" lon="7.13312">
        <ele>9</ele>
        <time>2011-12-10T10:03:58Z</time>
      </trkpt>
      <trkpt lat="43.56992" lon="7.13403">
        <ele>7</ele>
        <time>2011-12-10T10:04:08Z</time>
      </trkpt>
      <trkpt lat="43.56979" lon="7.13509">
        <ele>6</ele>
        <time>2011-12-10T10:04:18Z</time>
      </trkpt>
      <trkpt lat="43.5698" lon="7.13611">
        <ele>8</ele>
        <time>2011-12-10T10:04:28Z</time>
      </trkpt>
      <trkpt lat="43.56978" lon="7.13694">
        <ele>9</ele>
        <time>2011-12-10T10:04:38Z</time>
      </trkpt>
      <trkpt lat="43.56959" lon="7.13779">
        <ele>15</ele>
        <time>2011-12-10T10:04:48Z</time>
      </trkpt>
      <trkpt lat="43.5698" lon="7.13884">
        <ele>12</ele>
        <time>2011-12-10T10:04:58Z</time>
      </trkpt>
      <trkpt lat="43.56962" lon="7.13982">
        <ele>7</ele>
        <time>2011-12-10T10:05:08Z</time>
      </trkpt>
      <trkpt lat="43.56898" lon="7.13997">
        <ele>6</ele>
        <time>2011-12-10T10:05:18Z</time>
      </trkpt>
      <trkpt lat="43.56861" lon="7.13922">
        <ele>9</ele>
        <time>2011-12-10T10:05:28Z</time>
      </trkpt>
      <trkpt lat="43.56825" lon="7.13854">
        <ele>16</ele>
        <time>2011-12-10T10:05:38Z</time>
      </trkpt>
      <trkpt lat="43.56774" lon="7.13802">
        <ele>17</ele>
        <time>2011-12-10T10:05:48Z</time>
      </trkpt>
      <trkpt lat="43.56721" lon="7.13755">
        <ele>14</ele>
        <time>2011-12-10T10:05:58Z</time>
      </trkpt>
      <trkpt lat="43.56658" lon="7.1374">
        <ele>17</ele>
        <time>2011-12-10T10:06:08Z</time>
      </trkpt>
      <trkpt lat="43.56589" lon="7.13726">
        <ele>16</ele>
        <time>2011-12-10T10:06:18Z</time>
      </trkpt>
      <trkpt lat="43.56514" lon="7.13739">
        <ele>16</ele>
        <time>2011-12-10T10:06:28Z</time>
      </trkpt>
      <trkpt lat="43.56438" lon="7.13787">
        <ele>13</ele>
        <time>2011-12-10T10:06:38Z</time>
      </trkpt>
      <trkpt lat="43.56365" lon="7.13836">
        <ele>10</ele>
        <time>2011-12-10T10:06:48Z</time>
      </trkpt>
      <trkpt lat="43.56295" lon="7.13874">
        <ele>8</ele>
        <time>2011-12-10T10:06:58Z</time>
      </trkpt>
      <trkpt lat="43.56222" lon="7.13834">
        <ele>8</ele>
        <time>2011-12-10T10:07:08Z</time>
      </trkpt>
      <trkpt lat="43.56152" lon="7.13783">
        <ele>12</ele>
        <time>2011-12-10T10:07:18Z</time>
      </trkpt>
      <trkpt lat="43.56099" lon="7.13712">
        <ele>12</ele>
        <time>2011-12-10T10:07:28Z</time>
      </trkpt>
      <trkpt lat="43.56039" lon="7.13649">
        <ele>12</ele>
        <time>2011-12-10T10:07:38Z</time>
      </trkpt>
      <trkpt lat="43.55973" lon="7.13599">
        <ele>9</ele>
        <time>2011-12-10T10:07:48Z</time>
      </trkpt>
      <trkpt lat="43.55907" lon="7.1355">
        <ele>8</ele>
        <time>2011-12-10T10:07:58Z</time>
      </trkpt>
      <trkpt lat="43.55841" lon="7.13501">
        <ele>9</ele>
        <time>2011-12-10T10:08:08Z</time>
      </trkpt>
      <trkpt lat="43.55771" lon="7.13473">
        <ele>9</ele>
        <time>2011-12-10T10:08:18Z</time>
      </trkpt>
      <trkpt lat="43.55695" lon="7.13478">
        <ele>7</ele>
        <time>2011-12-10T10:08:28Z</time>
      </trkpt>
      <trkpt lat="43.55626" lon="7.1346">
        <ele>7</ele>
        <time>2011-12-10T10:08:38Z</time>
      </trkpt>
      <trkpt lat="43.55572" lon="7.13402">
        <ele>9</ele>
        <time>2011-12-10T10:08:48Z</time>
      </trkpt>
      <trkpt lat="43.55523" lon="7.13351">
        <ele>11</ele>
        <time>2011-12-10T10:08:58Z</time>
      </trkpt>
      <trkpt lat="43.55479" lon="7.1331">
        <ele>14</ele>
        <time>2011-12-10T10:09:08Z</time>
      </trkpt>
      <trkpt lat="43.5544" lon="7.1327">
        <ele>15</ele>
        <time>2011-12-10T10:09:18Z</time>
      </trkpt>
      <trkpt lat="43.55406" lon="7.13231">
        <ele>18</ele>
        <time>2011-12-10T10:09:28Z</time>
      </trkpt>
      <trkpt lat="43.5538" lon="7.13181">
        <ele>19</ele>
        <time>2011-12-10T10:09:38Z</time>
      </trkpt>
      <trkpt lat="43.55357" lon="7.13124">
        <ele>22</ele>
        <time>2011-12-10T10:09:48Z</time>
      </trkpt>
      <trkpt lat="43.55338" lon="7.13074">
        <ele>24</ele>
        <time>2011-12-10T10:09:58Z</time>
      </trkpt>
      <trkpt lat="43.55321" lon="7.13025">
        <ele>28</ele>
        <time>2011-12-10T10:10:08Z</time>
      </trkpt>
      <trkpt lat="43.55311" lon="7.12979">
        <ele>31</ele>
        <time>2011-12-10T10:10:18Z</time>
      </trkpt>
      <trkpt lat="43.55303" lon="7.12935">
        <ele>32</ele>
        <time>2011-12-10T10:10:28Z</time>
      </trkpt>
      <trkpt lat="43.5528" lon="7.12896">
        <ele>34</ele>
        <time>2011-12-10T10:10:38Z</time>
      </trkpt>
      <trkpt lat="43.5525" lon="7.12881">
        <ele>34</ele>
        <time>2011-12-10T10:10:48Z</time>
      </trkpt>
      <trkpt lat="43.55201" lon="7.12884">
        <ele>35</ele>
        <time>2011-12-10T10:10:58Z</time>
      </trkpt>
      <trkpt lat="43.5516" lon="7.12844">
        <ele>34</ele>
        <time>2011-12-10T10:11:08Z</time>
      </trkpt>
      <trkpt lat="43.55128" lon="7.12779">
        <ele>33</ele>
        <time>2011-12-10T10:11:18Z</time>
      </trkpt>
      <trkpt lat="43.55093" lon="7.127">
        <ele>29</ele>
        <time>2011-12-10T10:11:28Z</time>
      </trkpt>
      <trkpt lat="43.5506" lon="7.12611">
        <ele>30</ele>
        <time>2011-12-10T10:11:38Z</time>
      </trkpt>
      <trkpt lat="43.55025" lon="7.12519">
        <ele>29</ele>
        <time>2011-12-10T10:11:48Z</time>
      </trkpt>
      <trkpt lat="43.54988" lon="7.12442">
        <ele>33</ele>
        <time>2011-12-10T10:11:58Z</time>
      </trkpt>
      <trkpt lat="43.54957" lon="7.12362">
        <ele>30</ele>
        <time>2011-12-10T10:12:08Z</time>
      </trkpt>
      <trkpt lat="43.54899" lon="7.12278">
        <ele>28</ele>
        <time>2011-12-10T10:12:18Z</time>
      </trkpt>
      <trkpt lat="43.54879" lon="7.12168">
        <ele>25</ele>
        <time>2011-12-10T10:12:28Z</time>
      </trkpt>
      <trkpt lat="43.5491" lon="7.12065">
        <ele>23</ele>
        <time>2011-12-10T10:12:38Z</time>
      </trkpt>
      <trkpt lat="43.54952" lon="7.11966">
        <ele>19</ele>
        <time>2011-12-10T10:12:48Z</time>
      </trkpt>
      <trkpt lat="43.54947" lon="7.11867">
        <ele>15</ele>
        <time>2011-12-10T10:12:58Z</time>
      </trkpt>
      <trkpt lat="43.54969" lon="7.11835">
        <ele>12</ele>
        <time>2011-12-10T10:13:08Z</time>
      </trkpt>
      <trkpt lat="43.55051" lon="7.11883">
        <ele>9</ele>
        <time>2011-12-10T10:13:18Z</time>
      </trkpt>
      <trkpt lat="43.55113" lon="7.11953">
        <ele>8</ele>
        <time>2011-12-10T10:13:28Z</time>
      </trkpt>
      <trkpt lat="43.55104" lon="7.12072">
        <ele>7</ele>
        <time>2011-12-10T10:13:38Z</time>
      </trkpt>
      <trkpt lat="43.5516" lon="7.12133">
        <ele>7</ele>
        <time>2011-12-10T10:13:48Z</time>
      </trkpt>
      <trkpt lat="43.55215" lon="7.12189">
        <ele>6</ele>
        <time>2011-12-10T10:13:58Z</time>
      </trkpt>
      <trkpt lat="43.55274" lon="7.12235">
        <ele>6</ele>
        <time>2011-12-10T10:14:08Z</time>
      </trkpt>
      <trkpt lat="43.55342" lon="7.12215">
        <ele>6</ele>
        <time>2011-12-10T10:14:18Z</time>
      </trkpt>
      <trkpt lat="43.55408" lon="7.12254">
        <ele>5</ele>
        <time>2011-12-10T10:14:28Z</time>
      </trkpt>
      <trkpt lat="43.5548" lon="7.1223">
        <ele>6</ele>
        <time>2011-12-10T10:14:38Z</time>
      </trkpt>
      <trkpt lat="43.55521" lon="7.12151">
        <ele>6</ele>
        <time>2011-12-10T10:14:48Z</time>
      </trkpt>
      <trkpt lat="43.55583" lon="7.12122">
        <ele>7</ele>
        <time>2011-12-10T10:14:58Z</time>
      </trkpt>
      <trkpt lat="43.55649" lon="7.12166">
        <ele>5</ele>
        <time>2011-12-10T10:15:08Z</time>
      </trkpt>
      <trkpt lat="43.55714" lon="7.1221">
        <ele>7</ele>
        <time>2011-12-10T10:15:18Z</time>
      </trkpt>
      <trkpt lat="43.55784" lon="7.12209">
        <ele>8</ele>
        <time>2011-12-10T10:15:28Z</time>
      </trkpt>
      <trkpt lat="43.55852" lon="7.12184">
        <ele>8</ele>
        <time>2011-12-10T10:15:38Z</time>
      </trkpt>
      <trkpt lat="43.55923" lon="7.1218">
        <ele>9</ele>
        <time>2011-12-10T10:15:48Z</time>
      </trkpt>
      <trkpt lat="43.55989" lon="7.12153">
        <ele>8</ele>
        <time>2011-12-10T10:15:58Z</time>
      </trkpt>
      <trkpt lat="43.56038" lon="7.12082">
        <ele>6</ele>
        <time>2011-12-10T10:16:08Z</time>
      </trkpt>
      <trkpt lat="43.56083" lon="7.12006">
        <ele>5</ele>
        <time>2011-12-10T10:16:18Z</time>
      </trkpt>
      <trkpt lat="43.56125" lon="7.11932">
        <ele>7</ele>
        <time>2011-12-10T10:16:28Z</time>
      </trkpt>
      <trkpt lat="43.56156" lon="7.11856">
        <ele>5</ele>
        <time>2011-12-10T10:16:38Z</time>
      </trkpt>
      <trkpt lat="43.56198" lon="7.11791">
        <ele>5</ele>
        <time>2011-12-10T10:16:48Z</time>
      </trkpt>
      <trkpt lat="43.56265" lon="7.11758">
        <ele>7</ele>
        <time>2011-12-10T10:16:58Z</time>
      </trkpt>
      <trkpt lat="43.56328" lon="7.11733">
        <ele>6</ele>
        <time>2011-12-10T10:17:08Z</time>
      </trkpt>
      <trkpt lat="43.56367" lon="7.11665">
        <ele>10</ele>
        <time>2011-12-10T10:17:18Z</time>
      </trkpt>
      <trkpt lat="43.56406" lon="7.11607">
        <ele>11</ele>
        <time>2011-12-10T10:17:28Z</time>
      </trkpt>
      <trkpt lat="43.56461" lon="7.11571">
        <ele>10</ele>
        <time>2011-12-10T10:17:38Z</time>
      </trkpt>
      <trkpt lat="43.56524" lon="7.11561">
        <ele>12</ele>
        <time>2011-12-10T10:17:48Z</time>
      </trkpt>
      <trkpt lat="43.56589" lon="7.11572">
        <ele>14</ele>
        <time>2011-12-10T10:17:58Z</time>
      </trkpt>
      <trkpt lat="43.56652" lon="7.11593">
        <ele>14</ele>
        <time>2011-12-10T10:18:08Z</time>
      </trkpt>
      <trkpt lat="43.56716" lon="7.11593">
        <ele>14</ele>
        <time>2011-12-10T10:18:18Z</time>
      </trkpt>
      <trkpt lat="43.56774" lon="7.11564">
        <ele>13</ele>
        <time>2011-12-10T10:18:28Z</time>
      </trkpt>
      <trkpt lat="43.56787" lon="7.11515">
        <ele>12</ele>
        <time>2011-12-10T10:18:38Z</time>
      </trkpt>
      <trkpt lat="43.56789" lon="7.11431">
        <ele>10</ele>
        <time>2011-12-10T10:18:48Z</time>
      </trkpt>
      <trkpt lat="43.56786" lon="7.11354">
        <ele>9</ele>
        <time>2011-12-10T10:18:58Z</time>
      </trkpt>
      <trkpt lat="43.56788" lon="7.1129">
        <ele>9</ele>
        <time>2011-12-10T10:19:08Z</time>
      </trkpt>
      <trkpt lat="43.56835" lon="7.11258">
        <ele>11</ele>
        <time>2011-12-10T10:19:18Z</time>
      </trkpt>
      <trkpt lat="43.56855" lon="7.11179">
        <ele>12</ele>
        <time>2011-12-10T10:19:28Z</time>
      </trkpt>
      <trkpt lat="43.56877" lon="7.11093">
        <ele>12</ele>
        <time>2011-12-10T10:19:38Z</time>
      </trkpt>
      <trkpt lat="43.56888" lon="7.11002">
        <ele>9</ele>
        <time>2011-12-10T10:19:48Z</time>
      </trkpt>
      <trkpt lat="43.56898" lon="7.10908">
        <ele>9</ele>
        <time>2011-12-10T10:19:58Z</time>
      </trkpt>
      <trkpt lat="43.56909" lon="7.10839">
        <ele>8</ele>
        <time>2011-12-10T10:20:08Z</time>
      </trkpt>
      <trkpt lat="43.56939" lon="7.10747">
        <ele>15</ele>
        <time>2011-12-10T10:20:18Z</time>
      </trkpt>
      <trkpt lat="43.56975" lon="7.10664">
        <ele>14</ele>
        <time>2011-12-10T10:20:28Z</time>
      </trkpt>
      <trkpt lat="43.57011" lon="7.10573">
        <ele>11</ele>
        <time>2011-12-10T10:20:38Z</time>
      </trkpt>
      <trkpt lat="43.57044" lon="7.10475">
        <ele>11</ele>
        <time>2011-12-10T10:20:48Z</time>
      </trkpt>
      <trkpt lat="43.57061" lon="7.1038">
        <ele>10</ele>
        <time>2011-12-10T10:20:58Z</time>
      </trkpt>
      <trkpt lat="43.57077" lon="7.10285">
        <ele>8</ele>
        <time>2011-12-10T10:21:08Z</time>
      </trkpt>
      <trkpt lat="43.57087" lon="7.10228">
        <ele>7</ele>
        <time>2011-12-10T10:21:18Z</time>
      </trkpt>
      <trkpt lat="43.57101" lon="7.10161">
        <ele>5</ele>
        <time>2011-12-10T10:21:28Z</time>
      </trkpt>
      <trkpt lat="43.57118" lon="7.10076">
        <ele>6</ele>
        <time>2011-12-10T10:21:38Z</time>
      </trkpt>
      <trkpt lat="43.57128" lon="7.09987">
        <ele>7</ele>
        <time>2011-12-10T10:21:48Z</time>
      </trkpt>
      <trkpt lat="43.5713" lon="7.09895">
        <ele>6</ele>
        <time>2011-12-10T10:21:58Z</time>
      </trkpt>
      <trkpt lat="43.57131" lon="7.09797">
        <ele>3</ele>
        <time>2011-12-10T10:22:08Z</time>
      </trkpt>
      <trkpt lat="43.57124" lon="7.09698">
        <ele>4</ele>
        <time>2011-12-10T10:22:18Z</time>
      </trkpt>
      <trkpt lat="43.57115" lon="7.09596">
        <ele>5</ele>
        <time>2011-12-10T10:22:28Z</time>
      </trkpt>
      <trkpt lat="43.57103" lon="7.09492">
        <ele>3</ele>
        <time>2011-12-10T10:22:38Z</time>
      </trkpt>
      <trkpt lat="43.5709" lon="7.09388">
        <ele>3</ele>
        <time>2011-12-10T10:22:48Z</time>
      </trkpt>
      <trkpt lat="43.57079" lon="7.09281">
        <ele>3</ele>
        <time>2011-12-10T10:22:58Z</time>
      </trkpt>
      <trkpt lat="43.57068" lon="7.09174">
        <ele>3</ele>
        <time>2011-12-10T10:23:08Z</time>
      </trkpt>
      <trkpt lat="43.57058" lon="7.09071">
        <ele>3</ele>
        <time>2011-12-10T10:23:18Z</time>
      </trkpt>
      <trkpt lat="43.57048" lon="7.08968">
        <ele>2</ele>
        <time>2011-12-10T10:23:28Z</time>
      </trkpt>
      <trkpt lat="43.57037" lon="7.08859">
        <ele>2</ele>
        <time>2011-12-10T10:23:38Z</time>
      </trkpt>
      <trkpt lat="43.57025" lon="7.08754">
        <ele>2</ele>
        <time>2011-12-10T10:23:48Z</time>
      </trkpt>
      <trkpt lat="43.57014" lon="7.08654">
        <ele>5</ele>
        <time>2011-12-10T10:23:58Z</time>
      </trkpt>
      <trkpt lat="43.57004" lon="7.08557">
        <ele>4</ele>
        <time>2011-12-10T10:24:08Z</time>
      </trkpt>
      <trkpt lat="43.56985" lon="7.0846">
        <ele>2</ele>
        <time>2011-12-10T10:24:18Z</time>
      </trkpt>
      <trkpt lat="43.56957" lon="7.0837">
        <ele>3</ele>
        <time>2011-12-10T10:24:28Z</time>
      </trkpt>
      <trkpt lat="43.5692" lon="7.08283">
        <ele>4</ele>
        <time>2011-12-10T10:24:38Z</time>
      </trkpt>
      <trkpt lat="43.56879" lon="7.08205">
        <ele>4</ele>
        <time>2011-12-10T10:24:48Z</time>
      </trkpt>
      <trkpt lat="43.56841" lon="7.08125">
        <ele>5</ele>
        <time>2011-12-10T10:24:58Z</time>
      </trkpt>
      <trkpt lat="43.568" lon="7.08042">
        <ele>4</ele>
        <time>2011-12-10T10:25:08Z</time>
      </trkpt>
      <trkpt lat="43.56753" lon="7.0797">
        <ele>4</ele>
        <time>2011-12-10T10:25:18Z</time>
      </trkpt>
      <trkpt lat="43.56712" lon="7.07891">
        <ele>5</ele>
        <time>2011-12-10T10:25:28Z</time>
      </trkpt>
      <trkpt lat="43.56675" lon="7.07812">
        <ele>7</ele>
        <time>2011-12-10T10:25:38Z</time>
      </trkpt>
      <trkpt lat="43.56654" lon="7.07729">
        <ele>6</ele>
        <time>2011-12-10T10:25:48Z</time>
      </trkpt>
      <trkpt lat="43.56636" lon="7.07653">
        <ele>5</ele>
        <time>2011-12-10T10:25:58Z</time>
      </trkpt>
      <trkpt lat="43.56622" lon="7.07571">
        <ele>3</ele>
        <time>2011-12-10T10:26:08Z</time>
      </trkpt>
      <trkpt lat="43.56612" lon="7.07512">
        <ele>3</ele>
        <time>2011-12-10T10:26:18Z</time>
      </trkpt>
      <trkpt lat="43.56635" lon="7.07477">
        <ele>4</ele>
        <time>2011-12-10T10:26:28Z</time>
      </trkpt>
      <trkpt lat="43.56651" lon="7.07426">
        <ele>5</ele>
        <time>2011-12-10T10:26:38Z</time>
      </trkpt>
      <trkpt lat="43.56669" lon="7.07404">
        <ele>7</ele>
        <time>2011-12-10T10:26:48Z</time>
      </trkpt>
      <trkpt lat="43.56696" lon="7.07457">
        <ele>7</ele>
        <time>2011-12-10T10:26:58Z</time>
      </trkpt>
      <trkpt lat="43.56723" lon="7.0747">
        <ele>7</ele>
        <time>2011-12-10T10:27:08Z</time>
      </trkpt>
      <trkpt lat="43.56759" lon="7.07428">
        <ele>9</ele>
        <time>2011-12-10T10:27:18Z</time>
      </trkpt>
      <trkpt lat="43.56797" lon="7.07394">
        <ele>12</ele>
        <time>2011-12-10T10:27:28Z</time>
      </trkpt>
      <trkpt lat="43.56831" lon="7.07359">
        <ele>12</ele>
        <time>2011-12-10T10:27:38Z</time>
      </trkpt>
      <trkpt lat="43.56836" lon="7.07351">
        <ele>13</ele>
        <time>2011-12-10T10:27:48Z</time>
      </trkpt>
      <trkpt lat="43.56838" lon="7.07352">
        <ele>13</ele>
        <time>2011-12-10T10:27:58Z</time>
      </trkpt>
      <trkpt lat="43.56836" lon="7.07355">
        <ele>13</ele>
        <time>2011-12-10T10:28:08Z</time>
      </trkpt>
      <trkpt lat="43.5683" lon="7.07361">
        <ele>12</ele>
        <time>2011-12-10T10:28:18Z</time>
      </trkpt>
      <trkpt lat="43.56833" lon="7.0735">
        <ele>12</ele>
        <time>2011-12-10T10:28:28Z</time>
      </trkpt>
      <trkpt lat="43.56823" lon="7.07314">
        <ele>13</ele>
        <time>2011-12-10T10:28:38Z</time>
      </trkpt>
      <trkpt lat="43.56854" lon="7.07277">
        <ele>16</ele>
        <time>2011-12-10T10:28:48Z</time>
      </trkpt>
      <trkpt lat="43.56847" lon="7.07229">
        <ele>18</ele>
        <time>2011-12-10T10:28:58Z</time>
      </trkpt>
      <trkpt lat="43.56824" lon="7.07176">
        <ele>19</ele>
        <time>2011-12-10T10:29:08Z</time>
      </trkpt>
      <trkpt lat="43.56828" lon="7.07135">
        <ele>20</ele>
        <time>2011-12-10T10:29:18Z</time>
      </trkpt>
      <trkpt lat="43.56848" lon="7.071">
        <ele>22</ele>
        <time>2011-12-10T10:29:28Z</time>
      </trkpt>
      <trkpt lat="43.56865" lon="7.07066">
        <ele>23</ele>
        <time>2011-12-10T10:29:38Z</time>
      </trkpt>
      <trkpt lat="43.56888" lon="7.07036">
        <ele>23</ele>
        <time>2011-12-10T10:29:48Z</time>
      </trkpt>
      <trkpt lat="43.56915" lon="7.07017">
        <ele>25</ele>
        <time>2011-12-10T10:29:58Z</time>
      </trkpt>
      <trkpt lat="43.5694" lon="7.06987">
        <ele>29</ele>
        <time>2011-12-10T10:30:08Z</time>
      </trkpt>
      <trkpt lat="43.56963" lon="7.06952">
        <ele>31</ele>
        <time>2011-12-10T10:30:18Z</time>
      </trkpt>
      <trkpt lat="43.56978" lon="7.06905">
        <ele>34</ele>
        <time>2011-12-10T10:30:28Z</time>
      </trkpt>
      <trkpt lat="43.56999" lon="7.0687">
        <ele>35</ele>
        <time>2011-12-10T10:30:38Z</time>
      </trkpt>
      <trkpt lat="43.57026" lon="7.06858">
        <ele>38</ele>
        <time>2011-12-10T10:30:48Z</time>
      </trkpt>
      <trkpt lat="43.57058" lon="7.06867">
        <ele>39</ele>
        <time>2011-12-10T10:30:58Z</time>
      </trkpt>
      <trkpt lat="43.57092" lon="7.06874">
        <ele>41</ele>
        <time>2011-12-10T10:31:08Z</time>
      </trkpt>
      <trkpt lat="43.57125" lon="7.06866">
        <ele>41</ele>
        <time>2011-12-10T10:31:18Z</time>
      </trkpt>
      <trkpt lat="43.57159" lon="7.06845">
        <ele>43</ele>
        <time>2011-12-10T10:31:28Z</time>
      </trkpt>
      <trkpt lat="43.57195" lon="7.06814">
        <ele>51</ele>
        <time>2011-12-10T10:31:38Z</time>
      </trkpt>
      <trkpt lat="43.57231" lon="7.06777">
        <ele>55</ele>
        <time>2011-12-10T10:31:48Z</time>
      </trkpt>
      <trkpt lat="43.57271" lon="7.06744">
        <ele>63</ele>
        <time>2011-12-10T10:31:58Z</time>
      </trkpt>
      <trkpt lat="43.573" lon="7.06699">
        <ele>66</ele>
        <time>2011-12-10T10:32:08Z</time>
      </trkpt>
      <trkpt lat="43.57331" lon="7.06659">
        <ele>66</ele>
        <time>2011-12-10T10:32:18Z</time>
      </trkpt>
      <trkpt lat="43.57367" lon="7.06625">
        <ele>74</ele>
        <time>2011-12-10T10:32:28Z</time>
      </trkpt>
      <trkpt lat="43.57375" lon="7.06576">
        <ele>78</ele>
        <time>2011-12-10T10:32:38Z</time>
      </trkpt>
      <trkpt lat="43.57348" lon="7.06534">
        <ele>77</ele>
        <time>2011-12-10T10:32:48Z</time>
      </trkpt>
      <trkpt lat="43.57314" lon="7.06501">
        <ele>74</ele>
        <time>2011-12-10T10:32:58Z</time>
      </trkpt>
      <trkpt lat="43.57287" lon="7.06467">
        <ele>80</ele>
        <time>2011-12-10T10:33:08Z</time>
      </trkpt>
      <trkpt lat="43.57265" lon="7.06429">
        <ele>81</ele>
        <time>2011-12-10T10:33:18Z</time>
      </trkpt>
      <trkpt lat="43.57252" lon="7.06381">
        <ele>86</ele>
        <time>2011-12-10T10:33:28Z</time>
      </trkpt>
      <trkpt lat="43.57242" lon="7.06337">
        <ele>89</ele>
        <time>2011-12-10T10:33:38Z</time>
      </trkpt>
      <trkpt lat="43.57242" lon="7.06282">
        <ele>103</ele>
        <time>2011-12-10T10:33:48Z</time>
      </trkpt>
      <trkpt lat="43.57262" lon="7.06246">
        <ele>101</ele>
        <time>2011-12-10T10:33:58Z</time>
      </trkpt>
      <trkpt lat="43.57285" lon="7.06232">
        <ele>105</ele>
        <time>2011-12-10T10:34:08Z</time>
      </trkpt>
      <trkpt lat="43.57308" lon="7.06212">
        <ele>106</ele>
        <time>2011-12-10T10:34:18Z</time>
      </trkpt>
      <trkpt lat="43.57318" lon="7.06182">
        <ele>106</ele>
        <time>2011-12-10T10:34:28Z</time>
      </trkpt>
      <trkpt lat="43.5732" lon="7.06141">
        <ele>109</ele>
        <time>2011-12-10T10:34:38Z</time>
      </trkpt>
      <trkpt lat="43.57342" lon="7.06109">
        <ele>107</ele>
        <time>2011-12-10T10:34:48Z</time>
      </trkpt>
      <trkpt lat="43.57364" lon="7.06081">
        <ele>106</ele>
        <time>2011-12-10T10:34:58Z</time>
      </trkpt>
      <trkpt lat="43.5737" lon="7.06041">
        <ele>107</ele>
        <time>2011-12-10T10:35:08Z</time>
      </trkpt>
      <trkpt lat="43.57365" lon="7.05987">
        <ele>106</ele>
        <time>2011-12-10T10:35:18Z</time>
      </trkpt>
      <trkpt lat="43.57361" lon="7.05935">
        <ele>105</ele>
        <time>2011-12-10T10:35:28Z</time>
      </trkpt>
      <trkpt lat="43.57368" lon="7.05883">
        <ele>107</ele>
        <time>2011-12-10T10:35:38Z</time>
      </trkpt>
      <trkpt lat="43.57385" lon="7.05845">
        <ele>107</ele>
        <time>2011-12-10T10:35:48Z</time>
      </trkpt>
      <trkpt lat="43.57401" lon="7.05807">
        <ele>108</ele>
        <time>2011-12-10T10:35:58Z</time>
      </trkpt>
      <trkpt lat="43.57421" lon="7.05762">
        <ele>105</ele>
        <time>2011-12-10T10:36:08Z</time>
      </trkpt>
      <trkpt lat="43.57447" lon="7.05708">
        <ele>105</ele>
        <time>2011-12-10T10:36:18Z</time>
      </trkpt>
      <trkpt lat="43.57486" lon="7.05667">
        <ele>104</ele>
        <time>2011-12-10T10:36:28Z</time>
      </trkpt>
      <trkpt lat="43.5753" lon="7.05645">
        <ele>105</ele>
        <time>2011-12-10T10:36:38Z</time>
      </trkpt>
      <trkpt lat="43.57578" lon="7.05641">
        <ele>105</ele>
        <time>2011-12-10T10:36:48Z</time>
      </trkpt>
      <trkpt lat="43.57595" lon="7.05657">
        <ele>104</ele>
        <time>2011-12-10T10:36:58Z</time>
      </trkpt>
      <trkpt lat="43.57594" lon="7.05657">
        <ele>104</ele>
        <time>2011-12-10T10:37:08Z</time>
      </trkpt>
      <trkpt lat="43.57602" lon="7.0566">
        <ele>104</ele>
        <time>2011-12-10T10:37:18Z</time>
      </trkpt>
      <trkpt lat="43.57643" lon="7.05645">
        <ele>104</ele>
        <time>2011-12-10T10:37:28Z</time>
      </trkpt>
      <trkpt lat="43.57685" lon="7.05609">
        <ele>106</ele>
        <time>2011-12-10T10:37:38Z</time>
      </trkpt>
      <trkpt lat="43.57726" lon="7.05578">
        <ele>107</ele>
        <time>2011-12-10T10:37:48Z</time>
      </trkpt>
      <trkpt lat="43.57765" lon="7.05548">
        <ele>110</ele>
        <time>2011-12-10T10:37:58Z</time>
      </trkpt>
      <trkpt lat="43.57803" lon="7.05511">
        <ele>111</ele>
        <time>2011-12-10T10:38:08Z</time>
      </trkpt>
      <trkpt lat="43.57845" lon="7.0548">
        <ele>114</ele>
        <time>2011-12-10T10:38:18Z</time>
      </trkpt>
      <trkpt lat="43.5788" lon="7.0545">
        <ele>115</ele>
        <time>2011-12-10T10:38:28Z</time>
      </trkpt>
      <trkpt lat="43.57898" lon="7.05435">
        <ele>115</ele>
        <time>2011-12-10T10:38:38Z</time>
      </trkpt>
      <trkpt lat="43.57931" lon="7.0542">
        <ele>117</ele>
        <time>2011-12-10T10:38:48Z</time>
      </trkpt>
      <trkpt lat="43.57967" lon="7.05395">
        <ele>118</ele>
        <time>2011-12-10T10:38:58Z</time>
      </trkpt>
      <trkpt lat="43.58001" lon="7.05378">
        <ele>121</ele>
        <time>2011-12-10T10:39:08Z</time>
      </trkpt>
      <trkpt lat="43.58032" lon="7.05357">
        <ele>122</ele>
        <time>2011-12-10T10:39:18Z</time>
      </trkpt>
      <trkpt lat="43.58031" lon="7.0531">
        <ele>125</ele>
        <time>2011-12-10T10:39:28Z</time>
      </trkpt>
      <trkpt lat="43.58029" lon="7.05258">
        <ele>127</ele>
        <time>2011-12-10T10:39:38Z</time>
      </trkpt>
      <trkpt lat="43.5806" lon="7.05236">
        <ele>132</ele>
        <time>2011-12-10T10:39:48Z</time>
      </trkpt>
      <trkpt lat="43.58085" lon="7.05215">
        <ele>135</ele>
        <time>2011-12-10T10:39:58Z</time>
      </trkpt>
      <trkpt lat="43.58106" lon="7.05193">
        <ele>137</ele>
        <time>2011-12-10T10:40:08Z</time>
      </trkpt>
      <trkpt lat="43.58129" lon="7.05173">
        <ele>137</ele>
        <time>2011-12-10T10:40:18Z</time>
      </trkpt>
      <trkpt lat="43.58153" lon="7.05154">
        <ele>140</ele>
        <time>2011-12-10T10:40:28Z</time>
      </trkpt>
      <trkpt lat="43.58178" lon="7.05139">
        <ele>144</ele>
        <time>2011-12-10T10:40:38Z</time>
      </trkpt>
      <trkpt lat="43.58197" lon="7.0512">
        <ele>146</ele>
        <time>2011-12-10T10:40:48Z</time>
      </trkpt>
      <trkpt lat="43.58224" lon="7.05104">
        <ele>147</ele>
        <time>2011-12-10T10:40:58Z</time>
      </trkpt>
      <trkpt lat="43.5825" lon="7.0509">
        <ele>151</ele>
        <time>2011-12-10T10:41:08Z</time>
      </trkpt>
      <trkpt lat="43.58277" lon="7.05078">
        <ele>154</ele>
        <time>2011-12-10T10:41:18Z</time>
      </trkpt>
      <trkpt lat="43.58304" lon="7.05059">
        <ele>156</ele>
        <time>2011-12-10T10:41:28Z</time>
      </trkpt>
      <trkpt lat="43.58327" lon="7.05034">
        <ele>156</ele>
        <time>2011-12-10T10:41:38Z</time>
      </trkpt>
      <trkpt lat="43.58346" lon="7.05009">
        <ele>159</ele>
        <time>2011-12-10T10:41:48Z</time>
      </trkpt>
      <trkpt lat="43.5836" lon="7.0498">
        <ele>163</ele>
        <time>2011-12-10T10:41:58Z</time>
      </trkpt>
      <trkpt lat="43.58367" lon="7.04943">
        <ele>166</ele>
        <time>2011-12-10T10:42:08Z</time>
      </trkpt>
      <trkpt lat="43.58369" lon="7.04908">
        <ele>172</ele>
        <time>2011-12-10T10:42:18Z</time>
      </trkpt>
      <trkpt lat="43.58365" lon="7.04875">
        <ele>173</ele>
        <time>2011-12-10T10:42:28Z</time>
      </trkpt>
      <trkpt lat="43.58357" lon="7.04842">
        <ele>174</ele>
        <time>2011-12-10T10:42:38Z</time>
      </trkpt>
      <trkpt lat="43.58353" lon="7.0481">
        <ele>179</ele>
        <time>2011-12-10T10:42:48Z</time>
      </trkpt>
      <trkpt lat="43.58343" lon="7.04783">
        <ele>179</ele>
        <time>2011-12-10T10:42:58Z</time>
      </trkpt>
      <trkpt lat="43.58324" lon="7.0476">
        <ele>178</ele>
        <time>2011-12-10T10:43:08Z</time>
      </trkpt>
      <trkpt lat="43.5831" lon="7.04725">
        <ele>180</ele>
        <time>2011-12-10T10:43:18Z</time>
      </trkpt>
      <trkpt lat="43.583" lon="7.04689">
        <ele>181</ele>
        <time>2011-12-10T10:43:28Z</time>
      </trkpt>
      <trkpt lat="43.58286" lon="7.04655">
        <ele>183</ele>
        <time>2011-12-10T10:43:38Z</time>
      </trkpt>
      <trkpt lat="43.58268" lon="7.04622">
        <ele>185</ele>
        <time>2011-12-10T10:43:48Z</time>
      </trkpt>
      <trkpt lat="43.58249" lon="7.04593">
        <ele>187</ele>
        <time>2011-12-10T10:43:58Z</time>
      </trkpt>
      <trkpt lat="43.58233" lon="7.04563">
        <ele>190</ele>
        <time>2011-12-10T10:44:08Z</time>
      </trkpt>
      <trkpt lat="43.58216" lon="7.04535">
        <ele>192</ele>
        <time>2011-12-10T10:44:18Z</time>
      </trkpt>
      <trkpt lat="43.582" lon="7.04505">
        <ele>193</ele>
        <time>2011-12-10T10:44:28Z</time>
      </trkpt>
      <trkpt lat="43.58189" lon="7.04471">
        <ele>198</ele>
        <time>2011-12-10T10:44:38Z</time>
      </trkpt>
      <trkpt lat="43.58181" lon="7.04436">
        <ele>199</ele>
        <time>2011-12-10T10:44:48Z</time>
      </trkpt>
      <trkpt lat="43.58164" lon="7.04413">
        <ele>200</ele>
        <time>2011-12-10T10:44:58Z</time>
      </trkpt>
      <trkpt lat="43.58139" lon="7.04393">
        <ele>203</ele>
        <time>2011-12-10T10:45:08Z</time>
      </trkpt>
      <trkpt lat="43.58108" lon="7.04382">
        <ele>205</ele>
        <time>2011-12-10T10:45:18Z</time>
      </trkpt>
      <trkpt lat="43.58081" lon="7.04365">
        <ele>209</ele>
        <time>2011-12-10T10:45:28Z</time>
      </trkpt>
      <trkpt lat="43.58053" lon="7.04352">
        <ele>209</ele>
        <time>2011-12-10T10:45:38Z</time>
      </trkpt>
      <trkpt lat="43.58051" lon="7.04323">
        <ele>212</ele>
        <time>2011-12-10T10:45:48Z</time>
      </trkpt>
      <trkpt lat="43.5808" lon="7.04334">
        <ele>207</ele>
        <time>2011-12-10T10:45:58Z</time>
      </trkpt>
      <trkpt lat="43.58106" lon="7.04316">
        <ele>208</ele>
        <time>2011-12-10T10:46:08Z</time>
      </trkpt>
      <trkpt lat="43.58127" lon="7.04284">
        <ele>210</ele>
        <time>2011-12-10T10:46:18Z</time>
      </trkpt>
      <trkpt lat="43.58145" lon="7.04247">
        <ele>214</ele>
        <time>2011-12-10T10:46:28Z</time>
      </trkpt>
      <trkpt lat="43.5815" lon="7.04208">
        <ele>216</ele>
        <time>2011-12-10T10:46:38Z</time>
      </trkpt>
      <trkpt lat="43.58143" lon="7.04171">
        <ele>216</ele>
        <time>2011-12-10T10:46:48Z</time>
      </trkpt>
      <trkpt lat="43.5814" lon="7.04134">
        <ele>220</ele>
        <time>2011-12-10T10:46:58Z</time>
      </trkpt>
      <trkpt lat="43.58135" lon="7.04095">
        <ele>221</ele>
        <time>2011-12-10T10:47:08Z</time>
      </trkpt>
      <trkpt lat="43.58127" lon="7.04058">
        <ele>226</ele>
        <time>2011-12-10T10:47:18Z</time>
      </trkpt>
      <trkpt lat="43.5813" lon="7.04025">
        <ele>227</ele>
        <time>2011-12-10T10:47:28Z</time>
      </trkpt>
      <trkpt lat="43.58153" lon="7.04013">
        <ele>226</ele>
        <time>2011-12-10T10:47:38Z</time>
      </trkpt>
      <trkpt lat="43.58178" lon="7.04008">
        <ele>224</ele>
        <time>2011-12-10T10:47:48Z</time>
      </trkpt>
      <trkpt lat="43.58206" lon="7.04005">
        <ele>224</ele>
        <time>2011-12-10T10:47:58Z</time>
      </trkpt>
      <trkpt lat="43.58244" lon="7.03999">
        <ele>225</ele>
        <time>2011-12-10T10:48:08Z</time>
      </trkpt>
      <trkpt lat="43.58303" lon="7.04004">
        <ele>225</ele>
        <time>2011-12-10T10:48:18Z</time>
      </trkpt>
      <trkpt lat="43.58384" lon="7.04048">
        <ele>220</ele>
        <time>2011-12-10T10:48:28Z</time>
      </trkpt>
      <trkpt lat="43.58457" lon="7.04155">
        <ele>214</ele>
        <time>2011-12-10T10:48:38Z</time>
      </trkpt>
      <trkpt lat="43.58547" lon="7.04252">
        <ele>213</ele>
        <time>2011-12-10T10:48:48Z</time>
      </trkpt>
      <trkpt lat="43.58666" lon="7.04288">
        <ele>200</ele>
        <time>2011-12-10T10:48:58Z</time>
      </trkpt>
      <trkpt lat="43.58761" lon="7.04356">
        <ele>192</ele>
        <time>2011-12-10T10:49:08Z</time>
      </trkpt>
      <trkpt lat="43.58866" lon="7.04373">
        <ele>183</ele>
        <time>2011-12-10T10:49:18Z</time>
      </trkpt>
      <trkpt lat="43.58977" lon="7.04404">
        <ele>174</ele>
        <time>2011-12-10T10:49:28Z</time>
      </trkpt>
      <trkpt lat="43.59095" lon="7.04409">
        <ele>169</ele>
        <time>2011-12-10T10:49:38Z</time>
      </trkpt>
      <trkpt lat="43.59187" lon="7.04354">
        <ele>171</ele>
        <time>2011-12-10T10:49:48Z</time>
      </trkpt>
      <trkpt lat="43.59221" lon="7.04317">
        <ele>172</ele>
        <time>2011-12-10T10:49:58Z</time>
      </trkpt>
      <trkpt lat="43.59216" lon="7.04306">
        <ele>173</ele>
        <time>2011-12-10T10:50:08Z</time>
      </trkpt>
      <trkpt lat="43.59219" lon="7.0431">
        <ele>173</ele>
        <time>2011-12-10T10:50:18Z</time>
      </trkpt>
      <trkpt lat="43.59202" lon="7.04307">
        <ele>174</ele>
        <time>2011-12-10T10:50:28Z</time>
      </trkpt>
      <trkpt lat="43.59181" lon="7.04318">
        <ele>175</ele>
        <time>2011-12-10T10:50:38Z</time>
      </trkpt>
      <trkpt lat="43.59153" lon="7.0433">
        <ele>178</ele>
        <time>2011-12-10T10:50:48Z</time>
      </trkpt>
      <trkpt lat="43.59123" lon="7.04337">
        <ele>173</ele>
        <time>2011-12-10T10:50:58Z</time>
      </trkpt>
      <trkpt lat="43.59089" lon="7.04331">
        <ele>178</ele>
        <time>2011-12-10T10:51:08Z</time>
      </trkpt>
      <trkpt lat="43.59057" lon="7.04319">
        <ele>180</ele>
        <time>2011-12-10T10:51:18Z</time>
      </trkpt>
      <trkpt lat="43.59032" lon="7.04299">
        <ele>181</ele>
        <time>2011-12-10T10:51:28Z</time>
      </trkpt>
      <trkpt lat="43.5901" lon="7.04275">
        <ele>184</ele>
        <time>2011-12-10T10:51:38Z</time>
      </trkpt>
      <trkpt lat="43.58986" lon="7.04262">
        <ele>184</ele>
        <time>2011-12-10T10:51:48Z</time>
      </trkpt>
      <trkpt lat="43.58965" lon="7.04251">
        <ele>183</ele>
        <time>2011-12-10T10:51:58Z</time>
      </trkpt>
      <trkpt lat="43.58946" lon="7.04238">
        <ele>196</ele>
        <time>2011-12-10T10:52:08Z</time>
      </trkpt>
      <trkpt lat="43.58925" lon="7.04232">
        <ele>195</ele>
        <time>2011-12-10T10:52:18Z</time>
      </trkpt>
      <trkpt lat="43.58908" lon="7.04229">
        <ele>196</ele>
        <time>2011-12-10T10:52:28Z</time>
      </trkpt>
      <trkpt lat="43.58886" lon="7.04232">
        <ele>198</ele>
        <time>2011-12-10T10:52:38Z</time>
      </trkpt>
      <trkpt lat="43.58867" lon="7.04239">
        <ele>197</ele>
        <time>2011-12-10T10:52:48Z</time>
      </trkpt>
      <trkpt lat="43.58842" lon="7.04234">
        <ele>195</ele>
        <time>2011-12-10T10:52:58Z</time>
      </trkpt>
      <trkpt lat="43.58841" lon="7.04198">
        <ele>204</ele>
        <time>2011-12-10T10:53:08Z</time>
      </trkpt>
      <trkpt lat="43.58864" lon="7.04192">
        <ele>204</ele>
        <time>2011-12-10T10:53:18Z</time>
      </trkpt>
      <trkpt lat="43.58886" lon="7.04192">
        <ele>204</ele>
        <time>2011-12-10T10:53:28Z</time>
      </trkpt>
      <trkpt lat="43.58908" lon="7.0418">
        <ele>208</ele>
        <time>2011-12-10T10:53:38Z</time>
      </trkpt>
      <trkpt lat="43.58932" lon="7.04168">
        <ele>208</ele>
        <time>2011-12-10T10:53:48Z</time>
      </trkpt>
      <trkpt lat="43.5895" lon="7.04156">
        <ele>216</ele>
        <time>2011-12-10T10:53:58Z</time>
      </trkpt>
      <trkpt lat="43.58969" lon="7.04143">
        <ele>216</ele>
        <time>2011-12-10T10:54:08Z</time>
      </trkpt>
      <trkpt lat="43.58983" lon="7.04125">
        <ele>217</ele>
        <time>2011-12-10T10:54:18Z</time>
      </trkpt>
      <trkpt lat="43.58991" lon="7.04102">
        <ele>218</ele>
        <time>2011-12-10T10:54:28Z</time>
      </trkpt>
      <trkpt lat="43.58983" lon="7.04082">
        <ele>218</ele>
        <time>2011-12-10T10:54:38Z</time>
      </trkpt>
      <trkpt lat="43.58961" lon="7.04068">
        <ele>219</ele>
        <time>2011-12-10T10:54:48Z</time>
      </trkpt>
      <trkpt lat="43.58939" lon="7.04037">
        <ele>219</ele>
        <time>2011-12-10T10:54:58Z</time>
      </trkpt>
      <trkpt lat="43.58907" lon="7.04008">
        <ele>223</ele>
        <time>2011-12-10T10:55:08Z</time>
      </trkpt>
      <trkpt lat="43.58867" lon="7.03989">
        <ele>218</ele>
        <time>2011-12-10T10:55:18Z</time>
      </trkpt>
      <trkpt lat="43.58832" lon="7.03973">
        <ele>225</ele>
        <time>2011-12-10T10:55:28Z</time>
      </trkpt>
      <trkpt lat="43.58779" lon="7.03939">
        <ele>225</ele>
        <time>2011-12-10T10:55:38Z</time>
      </trkpt>
      <trkpt lat="43.5876" lon="7.03873">
        <ele>220</ele>
        <time>2011-12-10T10:55:48Z</time>
      </trkpt>
      <trkpt lat="43.58766" lon="7.03817">
        <ele>220</ele>
        <time>2011-12-10T10:55:58Z</time>
      </trkpt>
      <trkpt lat="43.58762" lon="7.03774">
        <ele>219</ele>
        <time>2011-12-10T10:56:08Z</time>
      </trkpt>
      <trkpt lat="43.58744" lon="7.0374">
        <ele>226</ele>
        <time>2011-12-10T10:56:18Z</time>
      </trkpt>
      <trkpt lat="43.58722" lon="7.03708">
        <ele>226</ele>
        <time>2011-12-10T10:56:28Z</time>
      </trkpt>
      <trkpt lat="43.58695" lon="7.037">
        <ele>228</ele>
        <time>2011-12-10T10:56:38Z</time>
      </trkpt>
      <trkpt lat="43.58655" lon="7.03689">
        <ele>232</ele>
        <time>2011-12-10T10:56:48Z</time>
      </trkpt>
      <trkpt lat="43.58609" lon="7.03677">
        <ele>232</ele>
        <time>2011-12-10T10:56:58Z</time>
      </trkpt>
      <trkpt lat="43.58575" lon="7.03646">
        <ele>223</ele>
        <time>2011-12-10T10:57:08Z</time>
      </trkpt>
      <trkpt lat="43.58534" lon="7.03586">
        <ele>219</ele>
        <time>2011-12-10T10:57:18Z</time>
      </trkpt>
      <trkpt lat="43.58541" lon="7.03558">
        <ele>216</ele>
        <time>2011-12-10T10:57:28Z</time>
      </trkpt>
      <trkpt lat="43.58587" lon="7.03597">
        <ele>218</ele>
        <time>2011-12-10T10:57:38Z</time>
      </trkpt>
      <trkpt lat="43.58612" lon="7.03635">
        <ele>220</ele>
        <time>2011-12-10T10:57:48Z</time>
      </trkpt>
      <trkpt lat="43.58611" lon="7.03634">
        <ele>220</ele>
        <time>2011-12-10T10:57:58Z</time>
      </trkpt>
      <trkpt lat="43.5861" lon="7.0363">
        <ele>219</ele>
        <time>2011-12-10T10:58:08Z</time>
      </trkpt>
      <trkpt lat="43.58606" lon="7.03635">
        <ele>220</ele>
        <time>2011-12-10T10:58:18Z</time>
      </trkpt>
      <trkpt lat="43.58601" lon="7.03635">
        <ele>220</ele>
        <time>2011-12-10T10:58:28Z</time>
      </trkpt>
      <trkpt lat="43.58603" lon="7.03642">
        <ele>221</ele>
        <time>2011-12-10T10:58:38Z</time>
      </trkpt>
      <trkpt lat="43.58605" lon="7.0365">
        <ele>222</ele>
        <time>2011-12-10T10:58:48Z</time>
      </trkpt>
      <trkpt lat="43.58606" lon="7.03653">
        <ele>222</ele>
        <time>2011-12-10T10:58:58Z</time>
      </trkpt>
    </trkseg>
  </trk>
</gpx>